sensor_id;sensor_type;location;lat;lon;timestamp;P1;durP1;ratioP1;P2;durP2;ratioP2
67363;SDS011;54250;45.572;38.086;2023-05-10T00:01:49;8.23;;;2.33;;
67363;SDS011;54250;45.572;38.086;2023-05-10T00:04:15;5.97;;;1.98;;
67363;SDS011;54250;45.572;38.086;2023-05-10T00:06:41;4.40;;;2.28;;
67363;SDS011;54250;45.572;38.086;2023-05-10T00:09:07;3.10;;;1.90;;
67363;SDS011;54250;45.572;38.086;2023-05-10T00:11:33;3.88;;;1.92;;
67363;SDS011;54250;45.572;38.086;2023-05-10T00:13:59;3.15;;;2.25;;
67363;SDS011;54250;45.572;38.086;2023-05-10T00:16:25;3.67;;;1.90;;
67363;SDS011;54250;45.572;38.086;2023-05-10T00:18:51;2.35;;;2.10;;
67363;SDS011;54250;45.572;38.086;2023-05-10T00:21:17;3.60;;;2.08;;
67363;SDS011;54250;45.572;38.086;2023-05-10T00:23:43;1.95;;;1.75;;
67363;SDS011;54250;45.572;38.086;2023-05-10T00:26:10;3.97;;;1.70;;
67363;SDS011;54250;45.572;38.086;2023-05-10T00:28:37;3.78;;;2.30;;
67363;SDS011;54250;45.572;38.086;2023-05-10T00:31:03;4.40;;;1.92;;
67363;SDS011;54250;45.572;38.086;2023-05-10T00:33:29;5.35;;;2.33;;
67363;SDS011;54250;45.572;38.086;2023-05-10T00:35:55;7.25;;;2.00;;
67363;SDS011;54250;45.572;38.086;2023-05-10T00:38:21;3.47;;;2.53;;
67363;SDS011;54250;45.572;38.086;2023-05-10T00:40:47;3.35;;;2.50;;
67363;SDS011;54250;45.572;38.086;2023-05-10T00:43:21;4.22;;;2.10;;
67363;SDS011;54250;45.572;38.086;2023-05-10T00:45:48;3.95;;;2.50;;
67363;SDS011;54250;45.572;38.086;2023-05-10T00:48:14;6.00;;;2.65;;
67363;SDS011;54250;45.572;38.086;2023-05-10T00:50:40;6.22;;;2.67;;
67363;SDS011;54250;45.572;38.086;2023-05-10T00:53:07;3.42;;;1.95;;
67363;SDS011;54250;45.572;38.086;2023-05-10T00:55:34;3.90;;;2.30;;
67363;SDS011;54250;45.572;38.086;2023-05-10T00:58:00;2.88;;;2.25;;
67363;SDS011;54250;45.572;38.086;2023-05-10T01:00:26;3.50;;;2.20;;
67363;SDS011;54250;45.572;38.086;2023-05-10T01:02:53;7.18;;;2.47;;
67363;SDS011;54250;45.572;38.086;2023-05-10T01:05:21;3.78;;;2.00;;
67363;SDS011;54250;45.572;38.086;2023-05-10T01:07:47;4.30;;;2.90;;
67363;SDS011;54250;45.572;38.086;2023-05-10T01:10:13;5.88;;;3.10;;
67363;SDS011;54250;45.572;38.086;2023-05-10T01:12:41;3.97;;;2.83;;
67363;SDS011;54250;45.572;38.086;2023-05-10T01:15:09;6.82;;;3.30;;
67363;SDS011;54250;45.572;38.086;2023-05-10T01:17:37;3.25;;;2.53;;
67363;SDS011;54250;45.572;38.086;2023-05-10T01:20:06;7.13;;;3.25;;
67363;SDS011;54250;45.572;38.086;2023-05-10T01:35:37;7.60;;;4.30;;
67363;SDS011;54250;45.572;38.086;2023-05-10T01:38:21;6.50;;;3.88;;
67363;SDS011;54250;45.572;38.086;2023-05-10T01:40:52;4.85;;;3.58;;
67363;SDS011;54250;45.572;38.086;2023-05-10T01:43:30;8.63;;;3.22;;
67363;SDS011;54250;45.572;38.086;2023-05-10T01:46:05;8.52;;;4.30;;
67363;SDS011;54250;45.572;38.086;2023-05-10T01:48:38;13.90;;;4.40;;
67363;SDS011;54250;45.572;38.086;2023-05-10T01:51:13;5.18;;;3.58;;
67363;SDS011;54250;45.572;38.086;2023-05-10T01:53:42;7.65;;;4.15;;
67363;SDS011;54250;45.572;38.086;2023-05-10T01:56:10;11.23;;;4.22;;
67363;SDS011;54250;45.572;38.086;2023-05-10T01:58:38;16.42;;;3.97;;
67363;SDS011;54250;45.572;38.086;2023-05-10T02:01:10;4.78;;;3.58;;
67363;SDS011;54250;45.572;38.086;2023-05-10T02:03:38;14.60;;;3.78;;
67363;SDS011;54250;45.572;38.086;2023-05-10T02:06:05;5.55;;;3.58;;
67363;SDS011;54250;45.572;38.086;2023-05-10T02:08:33;5.00;;;3.45;;
67363;SDS011;54250;45.572;38.086;2023-05-10T02:11:02;5.15;;;3.15;;
67363;SDS011;54250;45.572;38.086;2023-05-10T02:13:31;6.32;;;3.05;;
67363;SDS011;54250;45.572;38.086;2023-05-10T02:16:01;6.18;;;3.28;;
67363;SDS011;54250;45.572;38.086;2023-05-10T02:18:31;5.05;;;2.80;;
67363;SDS011;54250;45.572;38.086;2023-05-10T02:21:01;4.15;;;3.13;;
67363;SDS011;54250;45.572;38.086;2023-05-10T02:23:28;8.35;;;3.55;;
67363;SDS011;54250;45.572;38.086;2023-05-10T02:25:56;4.20;;;2.78;;
67363;SDS011;54250;45.572;38.086;2023-05-10T02:28:24;3.70;;;3.03;;
67363;SDS011;54250;45.572;38.086;2023-05-10T02:30:51;6.47;;;3.30;;
67363;SDS011;54250;45.572;38.086;2023-05-10T02:33:19;5.95;;;3.25;;
67363;SDS011;54250;45.572;38.086;2023-05-10T02:35:46;5.70;;;2.72;;
67363;SDS011;54250;45.572;38.086;2023-05-10T02:38:13;9.82;;;3.20;;
67363;SDS011;54250;45.572;38.086;2023-05-10T02:40:40;5.70;;;2.97;;
67363;SDS011;54250;45.572;38.086;2023-05-10T02:43:09;7.90;;;3.25;;
67363;SDS011;54250;45.572;38.086;2023-05-10T02:45:39;8.90;;;3.22;;
67363;SDS011;54250;45.572;38.086;2023-05-10T02:48:08;7.07;;;3.03;;
67363;SDS011;54250;45.572;38.086;2023-05-10T02:50:34;5.28;;;2.60;;
67363;SDS011;54250;45.572;38.086;2023-05-10T02:53:06;5.03;;;3.05;;
67363;SDS011;54250;45.572;38.086;2023-05-10T02:55:37;5.05;;;3.22;;
67363;SDS011;54250;45.572;38.086;2023-05-10T02:58:07;6.57;;;3.22;;
67363;SDS011;54250;45.572;38.086;2023-05-10T03:00:33;3.83;;;2.67;;
67363;SDS011;54250;45.572;38.086;2023-05-10T03:02:59;2.78;;;2.47;;
67363;SDS011;54250;45.572;38.086;2023-05-10T03:05:27;3.72;;;2.65;;
67363;SDS011;54250;45.572;38.086;2023-05-10T03:07:53;5.97;;;2.47;;
67363;SDS011;54250;45.572;38.086;2023-05-10T03:10:21;2.53;;;2.33;;
67363;SDS011;54250;45.572;38.086;2023-05-10T03:18:33;6.35;;;2.83;;
67363;SDS011;54250;45.572;38.086;2023-05-10T03:21:08;3.42;;;2.63;;
67363;SDS011;54250;45.572;38.086;2023-05-10T03:23:43;9.02;;;2.10;;
67363;SDS011;54250;45.572;38.086;2023-05-10T03:26:14;3.95;;;2.63;;
67363;SDS011;54250;45.572;38.086;2023-05-10T03:28:46;5.60;;;2.42;;
67363;SDS011;54250;45.572;38.086;2023-05-10T03:31:14;5.75;;;2.35;;
67363;SDS011;54250;45.572;38.086;2023-05-10T03:33:48;9.35;;;2.90;;
67363;SDS011;54250;45.572;38.086;2023-05-10T03:36:18;3.13;;;2.00;;
67363;SDS011;54250;45.572;38.086;2023-05-10T03:38:44;3.38;;;2.08;;
67363;SDS011;54250;45.572;38.086;2023-05-10T03:41:11;5.00;;;2.30;;
67363;SDS011;54250;45.572;38.086;2023-05-10T03:43:37;3.60;;;2.00;;
67363;SDS011;54250;45.572;38.086;2023-05-10T03:46:04;3.90;;;1.70;;
67363;SDS011;54250;45.572;38.086;2023-05-10T03:50:58;1.88;;;1.45;;
67363;SDS011;54250;45.572;38.086;2023-05-10T03:53:24;2.70;;;1.80;;
67363;SDS011;54250;45.572;38.086;2023-05-10T03:55:50;2.90;;;1.65;;
67363;SDS011;54250;45.572;38.086;2023-05-10T03:58:17;3.10;;;1.60;;
67363;SDS011;54250;45.572;38.086;2023-05-10T04:00:43;2.35;;;1.40;;
67363;SDS011;54250;45.572;38.086;2023-05-10T04:03:12;4.70;;;1.30;;
67363;SDS011;54250;45.572;38.086;2023-05-10T04:05:38;3.45;;;1.63;;
67363;SDS011;54250;45.572;38.086;2023-05-10T04:08:05;1.85;;;1.20;;
67363;SDS011;54250;45.572;38.086;2023-05-10T04:10:32;1.73;;;1.33;;
67363;SDS011;54250;45.572;38.086;2023-05-10T04:12:58;5.90;;;1.15;;
67363;SDS011;54250;45.572;38.086;2023-05-10T04:15:24;4.93;;;1.27;;
67363;SDS011;54250;45.572;38.086;2023-05-10T04:17:50;3.35;;;2.08;;
67363;SDS011;54250;45.572;38.086;2023-05-10T04:20:16;2.85;;;1.85;;
67363;SDS011;54250;45.572;38.086;2023-05-10T04:22:42;3.72;;;1.40;;
67363;SDS011;54250;45.572;38.086;2023-05-10T04:25:08;2.65;;;1.10;;
67363;SDS011;54250;45.572;38.086;2023-05-10T04:27:34;7.78;;;2.35;;
67363;SDS011;54250;45.572;38.086;2023-05-10T04:30:01;3.38;;;1.48;;
67363;SDS011;54250;45.572;38.086;2023-05-10T04:32:27;10.55;;;2.33;;
67363;SDS011;54250;45.572;38.086;2023-05-10T04:34:53;3.35;;;1.63;;
67363;SDS011;54250;45.572;38.086;2023-05-10T04:37:19;4.43;;;1.50;;
67363;SDS011;54250;45.572;38.086;2023-05-10T04:39:46;4.00;;;1.85;;
67363;SDS011;54250;45.572;38.086;2023-05-10T04:42:12;5.47;;;1.40;;
67363;SDS011;54250;45.572;38.086;2023-05-10T04:44:40;1.50;;;1.20;;
67363;SDS011;54250;45.572;38.086;2023-05-10T04:47:06;2.40;;;1.23;;
67363;SDS011;54250;45.572;38.086;2023-05-10T04:49:32;7.38;;;1.63;;
67363;SDS011;54250;45.572;38.086;2023-05-10T04:51:58;2.10;;;1.10;;
67363;SDS011;54250;45.572;38.086;2023-05-10T04:54:24;2.42;;;1.42;;
67363;SDS011;54250;45.572;38.086;2023-05-10T04:56:50;1.42;;;1.33;;
67363;SDS011;54250;45.572;38.086;2023-05-10T04:59:16;1.10;;;1.00;;
67363;SDS011;54250;45.572;38.086;2023-05-10T05:01:42;2.63;;;1.08;;
67363;SDS011;54250;45.572;38.086;2023-05-10T05:04:09;2.50;;;1.20;;
67363;SDS011;54250;45.572;38.086;2023-05-10T05:06:35;1.77;;;1.02;;
67363;SDS011;54250;45.572;38.086;2023-05-10T05:09:01;1.55;;;1.05;;
67363;SDS011;54250;45.572;38.086;2023-05-10T05:11:27;4.57;;;1.50;;
67363;SDS011;54250;45.572;38.086;2023-05-10T05:13:53;5.53;;;1.70;;
67363;SDS011;54250;45.572;38.086;2023-05-10T05:16:19;1.50;;;0.95;;
67363;SDS011;54250;45.572;38.086;2023-05-10T05:18:45;2.75;;;1.20;;
67363;SDS011;54250;45.572;38.086;2023-05-10T05:21:15;1.40;;;1.10;;
67363;SDS011;54250;45.572;38.086;2023-05-10T05:23:42;4.63;;;1.48;;
67363;SDS011;54250;45.572;38.086;2023-05-10T05:26:08;1.67;;;1.02;;
67363;SDS011;54250;45.572;38.086;2023-05-10T05:28:35;1.35;;;1.05;;
67363;SDS011;54250;45.572;38.086;2023-05-10T05:31:03;1.27;;;1.05;;
67363;SDS011;54250;45.572;38.086;2023-05-10T05:33:35;1.35;;;0.90;;
67363;SDS011;54250;45.572;38.086;2023-05-10T05:36:02;6.32;;;1.20;;
67363;SDS011;54250;45.572;38.086;2023-05-10T05:38:29;3.85;;;1.05;;
67363;SDS011;54250;45.572;38.086;2023-05-10T05:40:55;1.52;;;0.98;;
67363;SDS011;54250;45.572;38.086;2023-05-10T05:43:22;2.17;;;1.10;;
67363;SDS011;54250;45.572;38.086;2023-05-10T05:45:48;2.38;;;1.10;;
67363;SDS011;54250;45.572;38.086;2023-05-10T05:48:14;3.92;;;1.23;;
67363;SDS011;54250;45.572;38.086;2023-05-10T05:50:40;1.15;;;1.05;;
67363;SDS011;54250;45.572;38.086;2023-05-10T05:53:06;5.05;;;1.23;;
67363;SDS011;54250;45.572;38.086;2023-05-10T05:55:33;3.70;;;1.00;;
67363;SDS011;54250;45.572;38.086;2023-05-10T05:57:59;7.38;;;1.48;;
67363;SDS011;54250;45.572;38.086;2023-05-10T06:00:26;3.25;;;2.20;;
67363;SDS011;54250;45.572;38.086;2023-05-10T06:02:52;1.25;;;0.90;;
67363;SDS011;54250;45.572;38.086;2023-05-10T06:05:18;4.65;;;1.30;;
67363;SDS011;54250;45.572;38.086;2023-05-10T06:07:45;3.00;;;0.90;;
67363;SDS011;54250;45.572;38.086;2023-05-10T06:10:11;1.48;;;0.95;;
67363;SDS011;54250;45.572;38.086;2023-05-10T06:12:38;6.50;;;1.13;;
67363;SDS011;54250;45.572;38.086;2023-05-10T06:15:04;2.38;;;0.80;;
67363;SDS011;54250;45.572;38.086;2023-05-10T06:17:30;1.52;;;0.90;;
67363;SDS011;54250;45.572;38.086;2023-05-10T06:19:56;2.00;;;1.02;;
67363;SDS011;54250;45.572;38.086;2023-05-10T06:22:23;3.65;;;1.77;;
67363;SDS011;54250;45.572;38.086;2023-05-10T06:24:49;0.73;;;0.60;;
67363;SDS011;54250;45.572;38.086;2023-05-10T06:27:15;4.43;;;0.98;;
67363;SDS011;54250;45.572;38.086;2023-05-10T06:29:41;7.65;;;0.77;;
67363;SDS011;54250;45.572;38.086;2023-05-10T06:32:07;1.58;;;0.73;;
67363;SDS011;54250;45.572;38.086;2023-05-10T06:34:33;3.97;;;1.20;;
67363;SDS011;54250;45.572;38.086;2023-05-10T06:36:59;2.28;;;1.15;;
67363;SDS011;54250;45.572;38.086;2023-05-10T06:39:25;3.67;;;1.15;;
67363;SDS011;54250;45.572;38.086;2023-05-10T06:41:51;1.60;;;1.02;;
67363;SDS011;54250;45.572;38.086;2023-05-10T06:44:18;1.08;;;0.60;;
67363;SDS011;54250;45.572;38.086;2023-05-10T06:46:44;0.80;;;0.60;;
67363;SDS011;54250;45.572;38.086;2023-05-10T06:49:10;2.42;;;0.75;;
67363;SDS011;54250;45.572;38.086;2023-05-10T06:51:36;0.88;;;0.77;;
67363;SDS011;54250;45.572;38.086;2023-05-10T06:54:02;1.25;;;0.70;;
67363;SDS011;54250;45.572;38.086;2023-05-10T06:56:28;5.47;;;0.65;;
67363;SDS011;54250;45.572;38.086;2023-05-10T06:58:54;0.82;;;0.80;;
67363;SDS011;54250;45.572;38.086;2023-05-10T07:01:21;0.73;;;0.63;;
67363;SDS011;54250;45.572;38.086;2023-05-10T07:03:47;3.60;;;1.83;;
67363;SDS011;54250;45.572;38.086;2023-05-10T07:06:13;3.42;;;1.33;;
67363;SDS011;54250;45.572;38.086;2023-05-10T07:08:39;2.80;;;0.80;;
67363;SDS011;54250;45.572;38.086;2023-05-10T07:11:05;1.98;;;0.70;;
67363;SDS011;54250;45.572;38.086;2023-05-10T07:13:38;1.13;;;0.70;;
67363;SDS011;54250;45.572;38.086;2023-05-10T07:16:06;0.82;;;0.60;;
67363;SDS011;54250;45.572;38.086;2023-05-10T07:18:33;1.10;;;0.75;;
67363;SDS011;54250;45.572;38.086;2023-05-10T07:20:59;2.65;;;1.88;;
67363;SDS011;54250;45.572;38.086;2023-05-10T07:23:25;5.82;;;4.30;;
67363;SDS011;54250;45.572;38.086;2023-05-10T07:25:51;5.85;;;3.05;;
67363;SDS011;54250;45.572;38.086;2023-05-10T07:28:18;4.35;;;3.05;;
67363;SDS011;54250;45.572;38.086;2023-05-10T07:30:44;2.65;;;2.10;;
67363;SDS011;54250;45.572;38.086;2023-05-10T07:33:13;3.47;;;1.25;;
67363;SDS011;54250;45.572;38.086;2023-05-10T07:35:40;2.40;;;1.60;;
67363;SDS011;54250;45.572;38.086;2023-05-10T07:38:06;3.92;;;0.82;;
67363;SDS011;54250;45.572;38.086;2023-05-10T07:40:32;2.58;;;0.95;;
67363;SDS011;54250;45.572;38.086;2023-05-10T07:42:58;1.58;;;1.27;;
67363;SDS011;54250;45.572;38.086;2023-05-10T07:45:27;0.60;;;0.60;;
67363;SDS011;54250;45.572;38.086;2023-05-10T07:47:53;0.47;;;0.47;;
67363;SDS011;54250;45.572;38.086;2023-05-10T07:50:19;2.90;;;1.35;;
67363;SDS011;54250;45.572;38.086;2023-05-10T07:52:46;1.05;;;0.85;;
67363;SDS011;54250;45.572;38.086;2023-05-10T07:55:13;0.63;;;0.50;;
67363;SDS011;54250;45.572;38.086;2023-05-10T07:57:39;1.60;;;0.52;;
67363;SDS011;54250;45.572;38.086;2023-05-10T08:00:06;0.43;;;0.43;;
67363;SDS011;54250;45.572;38.086;2023-05-10T08:02:38;2.10;;;0.47;;
67363;SDS011;54250;45.572;38.086;2023-05-10T08:05:04;2.28;;;0.75;;
67363;SDS011;54250;45.572;38.086;2023-05-10T08:07:31;4.28;;;0.82;;
67363;SDS011;54250;45.572;38.086;2023-05-10T08:09:57;2.42;;;0.70;;
67363;SDS011;54250;45.572;38.086;2023-05-10T08:12:23;3.42;;;0.82;;
67363;SDS011;54250;45.572;38.086;2023-05-10T08:14:49;1.77;;;0.60;;
67363;SDS011;54250;45.572;38.086;2023-05-10T08:17:16;0.77;;;0.55;;
67363;SDS011;54250;45.572;38.086;2023-05-10T08:19:42;0.43;;;0.40;;
67363;SDS011;54250;45.572;38.086;2023-05-10T08:22:08;0.55;;;0.52;;
67363;SDS011;54250;45.572;38.086;2023-05-10T08:24:34;0.50;;;0.50;;
67363;SDS011;54250;45.572;38.086;2023-05-10T08:27:04;1.00;;;0.73;;
67363;SDS011;54250;45.572;38.086;2023-05-10T08:29:31;0.85;;;0.65;;
67363;SDS011;54250;45.572;38.086;2023-05-10T08:31:57;2.03;;;0.80;;
67363;SDS011;54250;45.572;38.086;2023-05-10T08:34:23;1.42;;;0.70;;
67363;SDS011;54250;45.572;38.086;2023-05-10T08:36:49;1.63;;;0.73;;
67363;SDS011;54250;45.572;38.086;2023-05-10T08:39:15;0.43;;;0.43;;
67363;SDS011;54250;45.572;38.086;2023-05-10T08:41:41;0.93;;;0.63;;
67363;SDS011;54250;45.572;38.086;2023-05-10T08:44:10;0.60;;;0.50;;
67363;SDS011;54250;45.572;38.086;2023-05-10T08:46:36;3.72;;;0.70;;
67363;SDS011;54250;45.572;38.086;2023-05-10T08:49:06;2.65;;;0.77;;
67363;SDS011;54250;45.572;38.086;2023-05-10T08:51:36;1.45;;;0.60;;
67363;SDS011;54250;45.572;38.086;2023-05-10T08:54:05;1.60;;;0.60;;
67363;SDS011;54250;45.572;38.086;2023-05-10T08:56:31;1.42;;;0.68;;
67363;SDS011;54250;45.572;38.086;2023-05-10T08:58:58;1.55;;;0.68;;
67363;SDS011;54250;45.572;38.086;2023-05-10T09:01:24;0.70;;;0.50;;
67363;SDS011;54250;45.572;38.086;2023-05-10T09:03:51;2.33;;;0.40;;
67363;SDS011;54250;45.572;38.086;2023-05-10T09:06:18;2.92;;;0.73;;
67363;SDS011;54250;45.572;38.086;2023-05-10T09:08:44;2.97;;;0.80;;
67363;SDS011;54250;45.572;38.086;2023-05-10T09:11:11;2.40;;;0.50;;
67363;SDS011;54250;45.572;38.086;2023-05-10T09:13:38;3.28;;;0.65;;
67363;SDS011;54250;45.572;38.086;2023-05-10T09:16:04;5.18;;;0.75;;
67363;SDS011;54250;45.572;38.086;2023-05-10T09:18:30;1.85;;;0.80;;
67363;SDS011;54250;45.572;38.086;2023-05-10T09:20:56;2.30;;;0.75;;
67363;SDS011;54250;45.572;38.086;2023-05-10T09:23:22;0.55;;;0.50;;
67363;SDS011;54250;45.572;38.086;2023-05-10T09:26:06;2.92;;;0.77;;
67363;SDS011;54250;45.572;38.086;2023-05-10T09:28:33;0.57;;;0.50;;
67363;SDS011;54250;45.572;38.086;2023-05-10T09:31:15;1.42;;;1.00;;
67363;SDS011;54250;45.572;38.086;2023-05-10T09:33:44;3.03;;;0.90;;
67363;SDS011;54250;45.572;38.086;2023-05-10T09:36:11;1.90;;;0.93;;
67363;SDS011;54250;45.572;38.086;2023-05-10T09:38:47;1.85;;;0.90;;
67363;SDS011;54250;45.572;38.086;2023-05-10T09:41:20;1.48;;;0.80;;
67363;SDS011;54250;45.572;38.086;2023-05-10T09:43:48;2.30;;;0.85;;
67363;SDS011;54250;45.572;38.086;2023-05-10T09:46:15;2.50;;;0.85;;
67363;SDS011;54250;45.572;38.086;2023-05-10T09:48:43;2.60;;;0.80;;
67363;SDS011;54250;45.572;38.086;2023-05-10T09:51:16;0.60;;;0.60;;
67363;SDS011;54250;45.572;38.086;2023-05-10T09:53:47;0.80;;;0.55;;
67363;SDS011;54250;45.572;38.086;2023-05-10T09:56:34;0.82;;;0.70;;
67363;SDS011;54250;45.572;38.086;2023-05-10T09:59:01;0.90;;;0.70;;
67363;SDS011;54250;45.572;38.086;2023-05-10T10:01:28;1.15;;;1.00;;
67363;SDS011;54250;45.572;38.086;2023-05-10T10:03:55;0.90;;;0.60;;
67363;SDS011;54250;45.572;38.086;2023-05-10T10:06:23;2.83;;;0.60;;
67363;SDS011;54250;45.572;38.086;2023-05-10T10:08:50;2.15;;;0.90;;
67363;SDS011;54250;45.572;38.086;2023-05-10T10:11:16;0.73;;;0.70;;
67363;SDS011;54250;45.572;38.086;2023-05-10T10:13:42;0.60;;;0.60;;
67363;SDS011;54250;45.572;38.086;2023-05-10T10:16:09;3.25;;;0.82;;
67363;SDS011;54250;45.572;38.086;2023-05-10T10:18:38;1.33;;;0.60;;
67363;SDS011;54250;45.572;38.086;2023-05-10T10:21:07;2.05;;;0.85;;
67363;SDS011;54250;45.572;38.086;2023-05-10T10:23:36;1.00;;;0.70;;
67363;SDS011;54250;45.572;38.086;2023-05-10T10:26:03;2.70;;;0.65;;
67363;SDS011;54250;45.572;38.086;2023-05-10T10:34:33;3.03;;;0.73;;
67363;SDS011;54250;45.572;38.086;2023-05-10T10:37:03;0.90;;;0.50;;
67363;SDS011;54250;45.572;38.086;2023-05-10T10:39:30;0.82;;;0.60;;
67363;SDS011;54250;45.572;38.086;2023-05-10T10:41:57;1.42;;;0.65;;
67363;SDS011;54250;45.572;38.086;2023-05-10T10:52:13;1.15;;;0.50;;
67363;SDS011;54250;45.572;38.086;2023-05-10T10:55:02;0.88;;;0.63;;
67363;SDS011;54250;45.572;38.086;2023-05-10T10:57:51;0.90;;;0.60;;
67363;SDS011;54250;45.572;38.086;2023-05-10T11:05:36;0.70;;;0.63;;
67363;SDS011;54250;45.572;38.086;2023-05-10T11:08:10;0.70;;;0.60;;
67363;SDS011;54250;45.572;38.086;2023-05-10T11:10:38;2.13;;;1.15;;
67363;SDS011;54250;45.572;38.086;2023-05-10T11:13:06;0.85;;;0.70;;
67363;SDS011;54250;45.572;38.086;2023-05-10T11:15:36;1.15;;;0.65;;
67363;SDS011;54250;45.572;38.086;2023-05-10T11:18:18;2.17;;;0.63;;
67363;SDS011;54250;45.572;38.086;2023-05-10T11:20:52;0.90;;;0.65;;
67363;SDS011;54250;45.572;38.086;2023-05-10T11:23:21;0.75;;;0.60;;
67363;SDS011;54250;45.572;38.086;2023-05-10T11:25:47;1.73;;;0.70;;
67363;SDS011;54250;45.572;38.086;2023-05-10T11:28:16;1.23;;;0.50;;
67363;SDS011;54250;45.572;38.086;2023-05-10T11:30:43;1.42;;;0.60;;
67363;SDS011;54250;45.572;38.086;2023-05-10T11:33:14;0.80;;;0.70;;
67363;SDS011;54250;45.572;38.086;2023-05-10T11:35:41;1.20;;;0.60;;
67363;SDS011;54250;45.572;38.086;2023-05-10T11:38:08;1.02;;;0.63;;
67363;SDS011;54250;45.572;38.086;2023-05-10T11:40:35;2.20;;;0.75;;
67363;SDS011;54250;45.572;38.086;2023-05-10T11:43:02;0.65;;;0.60;;
67363;SDS011;54250;45.572;38.086;2023-05-10T11:45:32;4.13;;;0.80;;
67363;SDS011;54250;45.572;38.086;2023-05-10T11:47:59;1.67;;;0.80;;
67363;SDS011;54250;45.572;38.086;2023-05-10T11:50:26;2.90;;;0.93;;
67363;SDS011;54250;45.572;38.086;2023-05-10T11:52:53;0.80;;;0.60;;
67363;SDS011;54250;45.572;38.086;2023-05-10T11:55:21;1.02;;;0.50;;
67363;SDS011;54250;45.572;38.086;2023-05-10T11:57:49;0.50;;;0.40;;
67363;SDS011;54250;45.572;38.086;2023-05-10T12:00:17;0.85;;;0.63;;
67363;SDS011;54250;45.572;38.086;2023-05-10T12:02:43;1.75;;;0.50;;
67363;SDS011;54250;45.572;38.086;2023-05-10T12:05:10;2.15;;;0.77;;
67363;SDS011;54250;45.572;38.086;2023-05-10T12:07:36;2.95;;;0.63;;
67363;SDS011;54250;45.572;38.086;2023-05-10T12:10:11;1.60;;;0.70;;
67363;SDS011;54250;45.572;38.086;2023-05-10T12:12:44;0.50;;;0.50;;
67363;SDS011;54250;45.572;38.086;2023-05-10T12:17:46;0.80;;;0.60;;
67363;SDS011;54250;45.572;38.086;2023-05-10T12:20:17;2.08;;;0.80;;
67363;SDS011;54250;45.572;38.086;2023-05-10T12:22:51;0.60;;;0.60;;
67363;SDS011;54250;45.572;38.086;2023-05-10T12:25:23;0.63;;;0.50;;
67363;SDS011;54250;45.572;38.086;2023-05-10T12:27:56;1.50;;;0.63;;
67363;SDS011;54250;45.572;38.086;2023-05-10T12:30:27;1.52;;;0.93;;
67363;SDS011;54250;45.572;38.086;2023-05-10T12:33:02;0.80;;;0.70;;
67363;SDS011;54250;45.572;38.086;2023-05-10T12:35:32;1.55;;;0.70;;
67363;SDS011;54250;45.572;38.086;2023-05-10T12:40:55;0.70;;;0.60;;
67363;SDS011;54250;45.572;38.086;2023-05-10T12:43:25;1.33;;;0.88;;
67363;SDS011;54250;45.572;38.086;2023-05-10T12:45:52;3.97;;;0.90;;
67363;SDS011;54250;45.572;38.086;2023-05-10T12:48:18;5.70;;;1.55;;
67363;SDS011;54250;45.572;38.086;2023-05-10T12:50:45;1.30;;;0.70;;
67363;SDS011;54250;45.572;38.086;2023-05-10T12:53:16;0.63;;;0.63;;
67363;SDS011;54250;45.572;38.086;2023-05-10T12:55:42;0.80;;;0.60;;
67363;SDS011;54250;45.572;38.086;2023-05-10T12:58:09;0.50;;;0.47;;
67363;SDS011;54250;45.572;38.086;2023-05-10T13:00:35;3.17;;;0.68;;
67363;SDS011;54250;45.572;38.086;2023-05-10T13:03:03;1.00;;;0.68;;
67363;SDS011;54250;45.572;38.086;2023-05-10T13:05:33;1.55;;;0.80;;
67363;SDS011;54250;45.572;38.086;2023-05-10T13:07:59;10.73;;;0.80;;
67363;SDS011;54250;45.572;38.086;2023-05-10T13:10:25;1.42;;;0.80;;
67363;SDS011;54250;45.572;38.086;2023-05-10T13:12:52;1.55;;;1.08;;
67363;SDS011;54250;45.572;38.086;2023-05-10T13:15:18;0.73;;;0.70;;
67363;SDS011;54250;45.572;38.086;2023-05-10T13:17:44;5.50;;;0.70;;
67363;SDS011;54250;45.572;38.086;2023-05-10T13:20:10;4.05;;;0.90;;
67363;SDS011;54250;45.572;38.086;2023-05-10T13:22:37;1.45;;;0.60;;
67363;SDS011;54250;45.572;38.086;2023-05-10T13:25:03;0.60;;;0.60;;
67363;SDS011;54250;45.572;38.086;2023-05-10T13:27:30;1.55;;;0.98;;
67363;SDS011;54250;45.572;38.086;2023-05-10T13:29:56;0.75;;;0.75;;
67363;SDS011;54250;45.572;38.086;2023-05-10T13:32:22;1.58;;;0.70;;
67363;SDS011;54250;45.572;38.086;2023-05-10T13:34:48;0.70;;;0.70;;
67363;SDS011;54250;45.572;38.086;2023-05-10T13:37:14;1.40;;;0.85;;
67363;SDS011;54250;45.572;38.086;2023-05-10T13:39:40;6.28;;;1.20;;
67363;SDS011;54250;45.572;38.086;2023-05-10T13:42:06;3.50;;;0.82;;
67363;SDS011;54250;45.572;38.086;2023-05-10T13:44:32;7.30;;;1.10;;
67363;SDS011;54250;45.572;38.086;2023-05-10T13:46:59;1.48;;;0.70;;
67363;SDS011;54250;45.572;38.086;2023-05-10T13:49:25;3.40;;;0.98;;
67363;SDS011;54250;45.572;38.086;2023-05-10T13:51:51;1.35;;;0.80;;
67363;SDS011;54250;45.572;38.086;2023-05-10T13:54:17;3.83;;;1.05;;
67363;SDS011;54250;45.572;38.086;2023-05-10T13:56:47;2.08;;;0.77;;
67363;SDS011;54250;45.572;38.086;2023-05-10T13:59:14;1.30;;;0.90;;
67363;SDS011;54250;45.572;38.086;2023-05-10T14:01:40;3.10;;;1.00;;
67363;SDS011;54250;45.572;38.086;2023-05-10T14:04:08;2.72;;;1.13;;
67363;SDS011;54250;45.572;38.086;2023-05-10T14:06:48;1.67;;;1.00;;
67363;SDS011;54250;45.572;38.086;2023-05-10T14:09:14;1.20;;;1.10;;
67363;SDS011;54250;45.572;38.086;2023-05-10T14:11:41;2.85;;;1.63;;
67363;SDS011;54250;45.572;38.086;2023-05-10T14:14:11;2.03;;;1.30;;
67363;SDS011;54250;45.572;38.086;2023-05-10T14:16:41;5.68;;;1.50;;
67363;SDS011;54250;45.572;38.086;2023-05-10T14:19:08;3.83;;;1.52;;
67363;SDS011;54250;45.572;38.086;2023-05-10T14:21:35;3.67;;;1.80;;
67363;SDS011;54250;45.572;38.086;2023-05-10T14:24:01;4.00;;;2.20;;
67363;SDS011;54250;45.572;38.086;2023-05-10T14:26:27;2.65;;;1.88;;
67363;SDS011;54250;45.572;38.086;2023-05-10T14:28:53;2.45;;;2.03;;
67363;SDS011;54250;45.572;38.086;2023-05-10T14:31:19;4.75;;;1.85;;
67363;SDS011;54250;45.572;38.086;2023-05-10T14:33:46;3.08;;;1.80;;
67363;SDS011;54250;45.572;38.086;2023-05-10T14:36:12;3.08;;;1.55;;
67363;SDS011;54250;45.572;38.086;2023-05-10T14:38:39;2.58;;;1.70;;
67363;SDS011;54250;45.572;38.086;2023-05-10T14:41:05;2.83;;;1.88;;
67363;SDS011;54250;45.572;38.086;2023-05-10T14:43:32;1.63;;;1.42;;
67363;SDS011;54250;45.572;38.086;2023-05-10T14:45:58;7.03;;;1.80;;
67363;SDS011;54250;45.572;38.086;2023-05-10T14:48:24;2.72;;;1.55;;
67363;SDS011;54250;45.572;38.086;2023-05-10T14:50:50;4.75;;;1.98;;
67363;SDS011;54250;45.572;38.086;2023-05-10T14:53:17;2.00;;;1.35;;
67363;SDS011;54250;45.572;38.086;2023-05-10T14:55:43;2.38;;;1.75;;
67363;SDS011;54250;45.572;38.086;2023-05-10T14:58:09;3.97;;;1.60;;
67363;SDS011;54250;45.572;38.086;2023-05-10T15:00:36;3.28;;;1.60;;
67363;SDS011;54250;45.572;38.086;2023-05-10T15:03:02;2.33;;;1.63;;
67363;SDS011;54250;45.572;38.086;2023-05-10T15:05:28;5.22;;;1.40;;
67363;SDS011;54250;45.572;38.086;2023-05-10T15:07:54;2.50;;;1.70;;
67363;SDS011;54250;45.572;38.086;2023-05-10T15:10:21;1.88;;;1.63;;
67363;SDS011;54250;45.572;38.086;2023-05-10T15:12:47;6.18;;;1.77;;
67363;SDS011;54250;45.572;38.086;2023-05-10T15:15:13;6.80;;;1.63;;
67363;SDS011;54250;45.572;38.086;2023-05-10T15:17:40;6.57;;;1.95;;
67363;SDS011;54250;45.572;38.086;2023-05-10T15:20:06;2.47;;;1.50;;
67363;SDS011;54250;45.572;38.086;2023-05-10T15:22:33;2.55;;;1.65;;